Terminal Aerodrome Forecast
Issued by NWS

Home | Current Version | Previous Version | Graphics & Text | Print | Product List | Glossary On
Versions: 1 2 3 4 5 6 7 8 9 10 11 12 13 14 15 16 17 18
000
FTUS43 KTOP 102300
TAFMHK
TAF
KMHK 102329Z 1100/1124 15013G19KT P6SM FEW050
     FM110200 16009KT P6SM SCT080
     FM111700 20012G21KT P6SM SCT100=

USA.gov is the U.S. government's official web portal to all federal, state and local government web resources and services.